Alta Floresta, Brazil
Current Conditions -  °F | °C
As of 6:00 PM on Tuesday 25 Nov 2014 (Local Time) from SBAT Reporting Station
Scattered Clouds Scattered Clouds  
Wind Chill: 31°   Ceiling: Unl
Heat Index: 35°   Visibility: 6mi
Dew Point: 23°   Wind: 7mph
Humidity: 62%   Direction: 320°NW
Pressure: 29.74"   Gusts: NA
Location:  9.9°S, 55.91°W
Report Text: SBAT 252100Z 32006KT 9999 SCT030 FEW035TCU 31/23 Q1007
Loading
Personal Weather Stations






























Interactive Weather Map New forecast layout! Learn more

10-Day Weather Forecast

Advertisements
Track Severe Weather on mobile